Time;durP1;ratioP1;P1;durP2;ratioP2;P2;SDS_P1;SDS_P2;PMS_P1;PMS_P2;Temp;Humidity;BMP_temperature;BMP_pressure;BME280_temperature;BME280_humidity;BME280_pressure;Samples;Min_cycle;Max_cycle;Signal;HPM_P1;HPM_P2
2022/07/18 00:01:31;;;;;;;1.70;0.98;;;;;;;18.80;49.96;99333.38;4103340;28;20215;-53
2022/07/18 00:03:33;;;;;;;1.65;0.90;;;;;;;18.78;50.17;99335.63;4110179;28;20238;-52
2022/07/18 00:05:34;;;;;;;1.30;0.93;;;;;;;18.71;50.43;99341.47;4102057;28;20286;-52
2022/07/18 00:07:36;;;;;;;1.63;0.90;;;;;;;18.69;50.46;99337.31;4093240;28;20238;-51
2022/07/18 00:09:39;;;;;;;2.13;1.08;;;;;;;18.65;50.13;99336.22;4105670;28;20234;-52
2022/07/18 00:11:41;;;;;;;1.33;0.93;;;;;;;18.63;50.26;99343.97;4118582;28;20206;-51
2022/07/18 00:13:42;;;;;;;0.90;0.80;;;;;;;18.65;50.06;99341.78;4106465;28;20234;-51
2022/07/18 00:15:44;;;;;;;2.58;1.00;;;;;;;18.63;50.05;99341.19;4100849;28;20261;-53
2022/07/18 00:17:46;;;;;;;1.17;0.90;;;;;;;18.61;50.03;99341.50;4104067;28;20566;-53
2022/07/18 00:19:48;;;;;;;1.40;0.90;;;;;;;18.56;50.53;99337.91;4105400;28;20223;-51
2022/07/18 00:21:49;;;;;;;1.42;0.90;;;;;;;18.49;50.84;99337.38;4102140;28;20671;-54
2022/07/18 00:23:51;;;;;;;3.65;1.17;;;;;;;18.44;51.02;99334.63;4106748;28;20317;-52
2022/07/18 00:25:53;;;;;;;7.32;1.08;;;;;;;18.39;51.23;99331.84;4104930;28;20227;-52
2022/07/18 00:27:54;;;;;;;3.15;1.00;;;;;;;18.37;50.98;99329.34;4101274;28;20216;-51
2022/07/18 00:29:56;;;;;;;2.47;1.30;;;;;;;18.35;51.08;99333.50;4108007;28;20714;-51
2022/07/18 00:31:58;;;;;;;1.05;0.88;;;;;;;18.36;50.94;99332.41;4106931;28;20207;-51
2022/07/18 00:34:00;;;;;;;1.02;0.98;;;;;;;18.37;51.01;99340.44;4107857;28;20223;-52
2022/07/18 00:36:01;;;;;;;1.42;0.93;;;;;;;18.40;50.89;99336.28;4106933;28;20691;-53
2022/07/18 00:38:03;;;;;;;1.00;0.82;;;;;;;18.38;50.95;99335.75;4103022;28;20207;-52
2022/07/18 00:40:05;;;;;;;6.35;1.52;;;;;;;18.39;51.01;99338.22;4096143;28;20270;-52
2022/07/18 00:42:07;;;;;;;8.27;1.10;;;;;;;18.38;51.10;99341.28;4109246;28;20211;-51
2022/07/18 00:44:19;;;;;;;1.67;1.00;;;;;;;18.38;51.07;99341.28;4110941;28;20225;-52
2022/07/18 00:46:22;;;;;;;1.52;1.10;;;;;;;18.36;51.30;99344.34;4105373;28;20227;-51
2022/07/18 00:48:25;;;;;;;1.45;0.80;;;;;;;18.34;51.20;99346.56;4111501;28;20238;-52
2022/07/18 00:50:26;;;;;;;1.15;0.70;;;;;;;18.31;51.34;99343.53;4107754;28;21530;-52
2022/07/18 00:52:28;;;;;;;1.15;0.90;;;;;;;18.28;51.49;99341.25;4104196;28;20203;-53
2022/07/18 00:54:32;;;;;;;2.60;0.70;;;;;;;18.24;51.54;99340.19;4119876;28;20210;-51
2022/07/18 00:56:34;;;;;;;1.05;1.00;;;;;;;18.21;51.20;99341.56;4104302;28;20207;-52
2022/07/18 00:58:36;;;;;;;2.22;1.13;;;;;;;18.13;51.35;99338.50;4088704;28;20235;-53
2022/07/18 01:02:59;;;;;;;1.45;0.95;;;;;;;17.93;51.87;99346.84;4121805;28;20732;-52
2022/07/18 01:05:01;;;;;;;1.73;0.90;;;;;;;17.85;52.24;99341.84;4119399;28;20239;-51
2022/07/18 01:07:03;;;;;;;15.93;1.20;;;;;;;17.79;52.25;99342.97;4107669;28;20307;-52
2022/07/18 01:09:06;;;;;;;1.95;0.90;;;;;;;17.72;52.50;99337.69;4103659;28;20687;-51
2022/07/18 01:11:07;;;;;;;1.40;0.80;;;;;;;17.67;52.54;99328.56;4105539;28;20718;-52
2022/07/18 01:13:09;;;;;;;1.30;0.80;;;;;;;17.59;52.17;99326.34;4102562;28;20218;-51
2022/07/18 01:15:12;;;;;;;2.72;0.90;;;;;;;17.59;51.87;99338.22;4095481;28;20254;-51
2022/07/18 01:17:15;;;;;;;1.92;1.00;;;;;;;17.58;51.51;99331.03;4098876;28;20226;-52
2022/07/18 01:19:17;;;;;;;3.30;1.10;;;;;;;17.58;51.08;99330.22;4113814;28;20579;-52
2022/07/18 01:21:19;;;;;;;2.25;0.80;;;;;;;17.57;51.10;99328.53;4104930;28;20211;-51
2022/07/18 01:23:21;;;;;;;1.45;0.95;;;;;;;17.56;51.13;99327.72;4111250;28;20211;-52
2022/07/18 01:25:23;;;;;;;0.95;0.80;;;;;;;17.55;51.18;99330.75;4107795;28;20301;-54
2022/07/18 01:27:25;;;;;;;1.40;1.00;;;;;;;17.51;51.14;99333.25;4118031;28;20391;-51
2022/07/18 01:29:27;;;;;;;1.02;0.80;;;;;;;17.50;51.15;99327.97;4103899;28;20626;-53
2022/07/18 01:31:33;;;;;;;1.88;1.08;;;;;;;17.48;51.23;99327.41;4105229;28;20228;-53
2022/07/18 01:33:35;;;;;;;1.80;0.90;;;;;;;17.50;51.28;99330.72;4110432;28;20265;-52
2022/07/18 01:35:37;;;;;;;1.00;0.90;;;;;;;17.49;51.32;99331.84;4121093;28;20646;-51
2022/07/18 01:37:39;;;;;;;5.65;1.85;;;;;;;17.50;51.57;99328.81;4109496;28;20238;-52
2022/07/18 01:39:41;;;;;;;2.58;1.17;;;;;;;17.54;51.71;99334.63;4107479;28;20246;-52
2022/07/18 01:41:42;;;;;;;3.80;1.38;;;;;;;17.53;52.19;99333.78;4107880;28;20750;-50
2022/07/18 01:43:44;;;;;;;0.80;0.80;;;;;;;17.51;52.66;99330.47;4109389;28;20207;-53
2022/07/18 01:45:46;;;;;;;1.55;0.93;;;;;;;17.48;52.88;99330.19;4120333;28;20234;-53
2022/07/18 01:47:48;;;;;;;4.45;0.90;;;;;;;17.47;53.00;99334.06;4108517;28;20650;-54
2022/07/18 01:49:50;;;;;;;1.48;1.10;;;;;;;17.44;53.45;99337.41;4105126;28;20226;-53
2022/07/18 01:51:53;;;;;;;7.47;1.17;;;;;;;17.40;53.49;99333.50;4103032;28;20233;-53
2022/07/18 01:53:58;;;;;;;1.50;1.20;;;;;;;17.28;53.81;99330.13;4101935;28;21066;-52
2022/07/18 01:55:59;;;;;;;1.10;1.00;;;;;;;17.20;54.05;99333.44;4106743;28;20221;-53
2022/07/18 01:58:01;;;;;;;1.30;1.20;;;;;;;17.14;53.88;99323.44;4110667;28;20202;-52
2022/07/18 02:00:05;;;;;;;1.30;0.88;;;;;;;17.09;53.83;99331.72;4117997;28;20229;-51
2022/07/18 02:02:07;;;;;;;1.70;1.10;;;;;;;17.06;53.53;99332.28;4109679;28;20210;-51
2022/07/18 02:04:09;;;;;;;0.90;0.90;;;;;;;17.05;53.17;99330.63;4090796;28;20714;-53
2022/07/18 02:06:11;;;;;;;1.38;0.90;;;;;;;17.02;52.92;99331.16;4108452;28;20277;-52
2022/07/18 02:08:12;;;;;;;1.70;1.00;;;;;;;16.99;52.69;99327.00;4119489;28;21768;-52
2022/07/18 02:10:17;;;;;;;2.00;0.98;;;;;;;16.98;52.59;99330.06;4102982;28;20266;-53
2022/07/18 02:12:19;;;;;;;5.70;1.00;;;;;;;16.96;53.14;99321.16;4104004;28;20274;-53
2022/07/18 02:14:21;;;;;;;1.20;1.05;;;;;;;16.92;53.39;99320.88;4117747;28;20313;-52
2022/07/18 02:16:22;;;;;;;2.45;1.02;;;;;;;16.86;53.74;99315.63;4122061;28;20198;-53
2022/07/18 02:18:24;;;;;;;1.05;0.90;;;;;;;16.81;54.17;99321.13;4101017;28;20291;-53
2022/07/18 02:20:26;;;;;;;1.60;1.10;;;;;;;16.80;54.06;99313.94;4103917;28;20235;-52
2022/07/18 02:22:28;;;;;;;1.15;0.90;;;;;;;16.77;53.98;99317.22;4104683;28;20278;-53
2022/07/18 02:24:29;;;;;;;1.60;0.90;;;;;;;16.74;53.79;99315.00;4104707;28;20205;-52
2022/07/18 02:26:31;;;;;;;1.40;0.80;;;;;;;16.73;53.65;99313.34;4104387;28;20251;-52
2022/07/18 02:28:34;;;;;;;3.25;1.00;;;;;;;16.76;53.81;99315.56;4104547;28;20269;-53
2022/07/18 02:30:35;;;;;;;2.53;1.05;;;;;;;16.80;54.12;99313.94;4102807;28;20738;-53
2022/07/18 02:32:37;;;;;;;1.23;0.95;;;;;;;16.81;54.47;99310.06;4103424;28;20202;-52
2022/07/18 02:34:39;;;;;;;1.17;0.90;;;;;;;16.80;54.67;99316.69;4107187;28;20552;-53
2022/07/18 02:36:42;;;;;;;1.40;1.15;;;;;;;16.79;54.97;99314.19;4109576;28;20211;-52
2022/07/18 02:38:43;;;;;;;2.63;1.13;;;;;;;16.76;55.34;99323.06;4103962;28;20212;-53
2022/07/18 02:40:45;;;;;;;1.92;0.80;;;;;;;16.65;55.46;99313.88;4106318;28;20250;-52
2022/07/18 02:42:47;;;;;;;1.50;1.05;;;;;;;16.59;55.58;99314.97;4109627;28;20250;-53
2022/07/18 02:44:48;;;;;;;1.10;1.00;;;;;;;16.54;55.50;99312.16;4107479;28;20254;-53
2022/07/18 02:46:50;;;;;;;2.60;1.00;;;;;;;16.49;55.69;99314.09;4103687;28;20226;-53
2022/07/18 02:48:52;;;;;;;6.60;1.25;;;;;;;16.41;55.97;99315.41;4102245;28;20262;-53
2022/07/18 02:50:54;;;;;;;2.97;1.10;;;;;;;16.34;55.94;99312.03;4117316;28;20234;-53
2022/07/18 02:52:56;;;;;;;1.08;1.05;;;;;;;16.27;55.97;99311.44;4110868;28;20717;-53
2022/07/18 02:55:00;;;;;;;3.75;1.20;;;;;;;16.19;55.71;99302.81;4106786;28;20270;-53
2022/07/18 02:57:02;;;;;;;1.30;0.90;;;;;;;16.18;55.38;99307.53;4107498;28;20306;-52
2022/07/18 02:59:04;;;;;;;1.15;0.98;;;;;;;16.20;55.15;99305.31;4102183;28;20612;-52
2022/07/18 03:01:06;;;;;;;1.30;0.90;;;;;;;16.23;54.98;99309.47;4117280;28;20218;-54
2022/07/18 03:03:08;;;;;;;1.42;1.08;;;;;;;16.27;54.99;99311.44;4105098;28;20215;-53
2022/07/18 03:05:11;;;;;;;1.98;1.20;;;;;;;16.30;54.89;99305.34;4108190;28;20270;-53
2022/07/18 03:07:12;;;;;;;2.05;1.25;;;;;;;16.34;54.97;99306.50;4100263;28;20289;-52
2022/07/18 03:09:15;;;;;;;0.98;0.88;;;;;;;16.36;55.04;99309.00;4091905;28;20207;-53
2022/07/18 03:11:17;;;;;;;1.65;1.00;;;;;;;16.36;55.20;99309.81;4107769;28;20614;-52
2022/07/18 03:13:18;;;;;;;1.35;0.88;;;;;;;16.35;55.58;99313.69;4101939;28;20251;-53
2022/07/18 03:15:20;;;;;;;1.45;1.35;;;;;;;16.31;55.80;99312.56;4102939;28;20203;-52
2022/07/18 03:17:22;;;;;;;0.95;0.90;;;;;;;16.25;56.14;99313.63;4103873;28;20208;-52
2022/07/18 03:19:23;;;;;;;2.33;1.45;;;;;;;16.22;56.05;99314.16;4103208;28;20222;-52
2022/07/18 03:21:25;;;;;;;0.85;0.85;;;;;;;16.20;56.26;99316.38;4102304;28;20211;-53
2022/07/18 03:23:27;;;;;;;0.93;0.80;;;;;;;16.17;56.38;99322.41;4119107;28;20217;-53
2022/07/18 03:25:29;;;;;;;1.55;1.10;;;;;;;16.12;56.76;99319.63;4104835;28;20364;-53
2022/07/18 03:27:31;;;;;;;1.20;1.10;;;;;;;16.05;56.76;99320.94;4106801;28;20266;-53
2022/07/18 03:29:32;;;;;;;0.88;0.88;;;;;;;16.00;56.68;99319.00;4103530;28;20226;-53
2022/07/18 03:31:35;;;;;;;1.80;1.13;;;;;;;15.92;57.11;99319.50;4116733;28;20206;-52
2022/07/18 03:33:36;;;;;;;1.38;0.98;;;;;;;15.87;57.22;99322.19;4104081;28;20274;-52
2022/07/18 03:35:38;;;;;;;1.20;1.10;;;;;;;15.83;56.95;99321.06;4104280;28;20675;-53
2022/07/18 03:37:40;;;;;;;1.35;1.00;;;;;;;15.81;56.62;99327.94;4105421;28;20250;-52
2022/07/18 03:39:42;;;;;;;1.60;1.10;;;;;;;15.81;56.63;99334.28;4102778;28;20231;-54
2022/07/18 03:41:43;;;;;;;3.22;1.20;;;;;;;15.78;56.70;99321.03;4102891;28;20273;-52
2022/07/18 03:43:45;;;;;;;3.67;1.20;;;;;;;15.77;56.46;99327.63;4089919;28;20218;-52
2022/07/18 03:45:47;;;;;;;2.60;1.00;;;;;;;15.71;56.56;99334.19;4102331;28;20258;-52
2022/07/18 03:47:49;;;;;;;1.60;1.10;;;;;;;15.70;56.45;99327.00;4102540;28;20238;-52
2022/07/18 03:49:50;;;;;;;3.33;2.05;;;;;;;15.65;56.92;99332.50;4102358;28;20270;-52
2022/07/18 03:51:55;;;;;;;1.35;1.17;;;;;;;15.66;57.08;99331.41;4108066;28;20270;-52
2022/07/18 03:53:57;;;;;;;2.55;1.00;;;;;;;15.67;56.92;99338.59;4104445;28;20211;-52
2022/07/18 03:55:59;;;;;;;1.63;1.15;;;;;;;15.71;56.70;99333.38;4106544;28;20215;-51
2022/07/18 03:58:00;;;;;;;1.88;1.38;;;;;;;15.76;56.97;99341.72;4104339;28;20210;-51
2022/07/18 04:00:04;;;;;;;2.13;1.08;;;;;;;15.78;56.83;99340.34;4089182;28;20302;-52
2022/07/18 04:02:06;;;;;;;3.17;1.15;;;;;;;15.80;56.79;99338.16;4102795;28;21031;-53
2022/07/18 04:04:07;;;;;;;6.82;1.15;;;;;;;15.83;57.04;99342.31;4103350;28;20269;-52
2022/07/18 04:06:09;;;;;;;1.02;0.90;;;;;;;15.81;57.16;99339.81;4104137;28;20576;-52
2022/07/18 04:08:11;;;;;;;3.35;1.23;;;;;;;15.81;57.22;99345.34;4105568;28;20579;-52
2022/07/18 04:10:13;;;;;;;2.90;1.40;;;;;;;15.82;57.23;99335.94;4110765;28;20322;-52
2022/07/18 04:12:15;;;;;;;67.82;4.05;;;;;;;15.84;57.17;99344.78;4106264;28;20207;-52
2022/07/18 04:14:16;;;;;;;2.75;1.10;;;;;;;15.86;57.37;99348.16;4108096;28;20206;-51
2022/07/18 04:16:18;;;;;;;4.07;1.20;;;;;;;15.88;57.31;99345.94;4109800;28;20598;-53
2022/07/18 04:18:20;;;;;;;1.27;1.13;;;;;;;15.88;57.18;99348.69;4120024;28;20305;-53
2022/07/18 04:20:22;;;;;;;1.95;1.42;;;;;;;15.83;57.53;99343.13;4096550;28;20226;-52
2022/07/18 04:22:23;;;;;;;2.75;1.40;;;;;;;15.72;57.65;99346.94;4096992;28;20199;-52
2022/07/18 04:24:25;;;;;;;2.08;1.85;;;;;;;15.68;57.70;99348.53;4100542;28;20271;-52
2022/07/18 04:26:27;;;;;;;3.17;1.17;;;;;;;15.63;57.67;99342.97;4119446;28;20222;-53
2022/07/18 04:28:29;;;;;;;1.50;1.40;;;;;;;15.58;57.47;99345.69;4108701;28;20718;-52
2022/07/18 04:30:31;;;;;;;3.47;0.90;;;;;;;15.57;57.53;99341.25;4093472;28;20227;-53
2022/07/18 04:32:33;;;;;;;2.00;1.10;;;;;;;15.58;57.50;99339.34;4106352;28;20211;-53
2022/07/18 04:34:35;;;;;;;1.98;1.52;;;;;;;15.57;57.56;99338.50;4109085;28;20214;-52
2022/07/18 04:36:36;;;;;;;2.38;1.30;;;;;;;15.59;57.27;99336.31;4107878;28;20242;-52
2022/07/18 04:38:39;;;;;;;3.67;1.98;;;;;;;15.62;57.50;99340.50;4109559;28;20210;-53
2022/07/18 04:40:41;;;;;;;3.15;2.22;;;;;;;15.61;57.69;99336.88;4105746;28;20222;-52
2022/07/18 04:42:43;;;;;;;5.32;2.60;;;;;;;15.62;57.64;99335.78;4102918;28;20208;-53
2022/07/18 04:44:45;;;;;;;2.67;2.38;;;;;;;15.66;57.36;99342.44;4105122;28;20281;-53
2022/07/18 04:46:46;;;;;;;6.50;2.35;;;;;;;15.71;57.23;99349.94;4117433;28;20257;-52
2022/07/18 04:48:48;;;;;;;8.20;2.25;;;;;;;15.75;57.16;99351.09;4106632;28;20306;-53
2022/07/18 04:50:50;;;;;;;5.63;2.63;;;;;;;15.81;57.23;99344.50;4108517;28;20230;-53
2022/07/18 04:52:52;;;;;;;10.00;1.80;;;;;;;15.85;57.14;99329.94;4118993;28;20214;-52
2022/07/18 04:54:54;;;;;;;3.45;1.90;;;;;;;15.90;57.23;99337.41;4110153;28;21179;-52
2022/07/18 04:56:59;;;;;;;2.20;1.30;;;;;;;15.95;57.27;99334.69;4105302;28;20246;-54
2022/07/18 04:59:01;;;;;;;3.78;1.90;;;;;;;15.94;57.46;99344.88;4085284;28;20243;-52
2022/07/18 05:01:03;;;;;;;4.57;1.60;;;;;;;15.96;57.50;99336.34;4110540;28;20230;-52
2022/07/18 05:03:05;;;;;;;1.63;1.13;;;;;;;15.95;57.55;99329.97;4108693;28;20207;-51
2022/07/18 05:05:07;;;;;;;3.53;1.67;;;;;;;15.92;56.69;99338.81;4101813;28;20230;-52
2022/07/18 05:07:09;;;;;;;1.95;1.27;;;;;;;15.90;56.77;99349.25;4107196;28;20236;-51
2022/07/18 05:09:11;;;;;;;4.40;1.30;;;;;;;15.93;56.50;99340.47;4106285;28;20221;-53
2022/07/18 05:11:13;;;;;;;2.03;1.17;;;;;;;15.96;56.79;99341.88;4108164;28;20972;-52
2022/07/18 05:13:14;;;;;;;1.83;1.10;;;;;;;15.97;56.72;99333.31;4122847;28;20206;-51
2022/07/18 05:15:18;;;;;;;1.38;0.93;;;;;;;16.01;56.73;99334.44;4092951;28;20245;-52
2022/07/18 05:17:20;;;;;;;2.15;1.33;;;;;;;16.07;56.89;99333.41;4109788;28;20254;-52
2022/07/18 05:19:22;;;;;;;1.83;1.20;;;;;;;16.08;57.21;99329.53;4120511;28;20782;-52
2022/07/18 05:21:24;;;;;;;11.73;1.67;;;;;;;16.00;57.28;99334.72;4109066;28;20207;-52
2022/07/18 05:23:26;;;;;;;2.58;1.30;;;;;;;16.02;57.62;99335.28;4104678;28;20214;-53
2022/07/18 05:25:27;;;;;;;3.08;1.63;;;;;;;15.78;58.42;99334.84;4105635;28;21848;-53
2022/07/18 05:27:30;;;;;;;8.02;1.42;;;;;;;15.92;57.93;99336.06;4109198;28;20231;-52
2022/07/18 05:29:32;;;;;;;1.38;1.20;;;;;;;16.08;57.65;99339.72;4104990;28;20231;-55
2022/07/18 05:31:34;;;;;;;1.33;1.00;;;;;;;16.27;57.46;99336.28;4106904;28;20338;-54
2022/07/18 05:33:36;;;;;;;5.35;1.15;;;;;;;16.32;57.05;99339.09;4096147;28;20730;-51
2022/07/18 05:35:37;;;;;;;2.00;1.20;;;;;;;16.47;56.52;99343.88;4111239;28;20238;-52
2022/07/18 05:37:40;;;;;;;2.47;1.40;;;;;;;16.62;56.89;99346.75;4121415;28;20203;-51
2022/07/18 05:39:42;;;;;;;2.08;1.05;;;;;;;16.92;57.53;99344.97;4106825;28;20230;-52
2022/07/18 05:41:43;;;;;;;3.92;1.00;;;;;;;17.00;56.17;99349.97;4105256;28;20258;-51
2022/07/18 05:43:45;;;;;;;1.63;1.10;;;;;;;17.15;55.41;99355.53;4108116;28;20211;-52
2022/07/18 05:45:47;;;;;;;2.95;1.35;;;;;;;17.31;55.00;99349.78;4105660;28;20207;-51
2022/07/18 05:47:49;;;;;;;3.83;1.15;;;;;;;17.39;53.97;99351.22;4106002;28;20258;-51
2022/07/18 05:49:51;;;;;;;2.88;1.15;;;;;;;17.42;53.87;99343.19;4106279;28;20243;-51
2022/07/18 05:51:52;;;;;;;6.60;1.20;;;;;;;17.57;54.07;99345.13;4106127;28;20211;-51
2022/07/18 05:53:55;;;;;;;3.30;1.13;;;;;;;17.64;53.19;99341.00;4107902;28;20265;-54
2022/07/18 05:55:57;;;;;;;1.15;0.90;;;;;;;17.66;53.01;99343.50;4111186;28;20218;-52
2022/07/18 05:57:59;;;;;;;2.38;1.05;;;;;;;17.81;52.14;99340.75;4123331;28;20227;-52
2022/07/18 06:00:06;;;;;;;2.30;0.82;;;;;;;17.80;51.94;99345.44;4094502;28;20290;-51
2022/07/18 06:02:08;;;;;;;6.18;1.10;;;;;;;18.00;52.53;99334.38;4121912;28;20337;-53
2022/07/18 06:04:10;;;;;;;2.20;1.05;;;;;;;18.12;52.04;99342.41;4092049;28;20592;-51
2022/07/18 06:06:12;;;;;;;1.92;1.10;;;;;;;18.25;51.30;99339.06;4103838;28;20626;-52
2022/07/18 06:08:13;;;;;;;2.50;1.15;;;;;;;18.31;52.28;99340.75;4120431;28;20820;-52
2022/07/18 06:10:15;;;;;;;2.33;1.10;;;;;;;18.60;52.38;99339.84;4124527;28;20765;-51
2022/07/18 06:12:17;;;;;;;1.73;1.15;;;;;;;18.61;51.41;99337.88;4093177;28;20286;-51
2022/07/18 06:14:22;;;;;;;6.45;1.23;;;;;;;18.83;51.04;99332.81;4106887;28;20313;-51
2022/07/18 06:16:24;;;;;;;1.00;0.80;;;;;;;18.97;50.65;99339.44;4123231;28;20209;-51
2022/07/18 06:18:26;;;;;;;3.03;1.20;;;;;;;19.10;50.23;99336.00;4111299;28;20234;-51
2022/07/18 06:20:28;;;;;;;7.43;1.00;;;;;;;19.19;50.08;99334.31;4110856;28;20242;-51
2022/07/18 06:22:30;;;;;;;5.18;0.80;;;;;;;19.43;49.67;99329.75;4103532;28;20679;-52
2022/07/18 06:24:31;;;;;;;1.80;1.17;;;;;;;19.59;49.58;99329.38;4102052;28;20215;-54
2022/07/18 06:26:33;;;;;;;1.77;1.10;;;;;;;19.82;49.70;99327.81;4106677;28;20210;-52
2022/07/18 06:28:35;;;;;;;2.65;1.35;;;;;;;20.02;49.30;99336.81;4101929;28;21155;-52
2022/07/18 06:30:37;;;;;;;2.85;1.38;;;;;;;20.28;48.67;99329.09;4100673;28;20226;-52
2022/07/18 06:32:39;;;;;;;3.28;1.30;;;;;;;20.29;48.27;99336.31;4105848;28;20214;-51
2022/07/18 06:34:41;;;;;;;3.55;0.90;;;;;;;20.61;48.52;99333.75;4111343;28;20875;-53
2022/07/18 06:36:42;;;;;;;3.08;0.85;;;;;;;20.74;48.03;99333.03;4102997;28;20206;-52
2022/07/18 06:38:44;;;;;;;9.07;1.05;;;;;;;20.82;47.68;99335.16;4101851;28;20215;-52
2022/07/18 06:40:46;;;;;;;2.72;1.67;;;;;;;20.96;47.53;99341.72;4109691;28;20277;-51
2022/07/18 06:42:47;;;;;;;3.42;0.90;;;;;;;21.03;46.95;99331.03;4104375;28;20265;-53
2022/07/18 06:44:49;;;;;;;3.60;0.88;;;;;;;21.02;46.05;99323.81;4111869;28;20963;-52
2022/07/18 06:46:52;;;;;;;1.50;0.85;;;;;;;21.15;47.15;99329.50;4102800;28;20207;-52
2022/07/18 06:48:53;;;;;;;3.13;0.90;;;;;;;21.27;46.29;99323.50;4109760;28;20250;-52
2022/07/18 06:50:55;;;;;;;1.42;0.90;;;;;;;21.47;45.53;99325.97;4105205;28;20265;-52
2022/07/18 06:53:00;;;;;;;2.80;0.93;;;;;;;21.62;45.85;99322.97;4105094;28;20274;-52
2022/07/18 06:55:01;;;;;;;1.88;0.95;;;;;;;21.76;45.17;99318.31;4121229;28;20218;-53
2022/07/18 06:57:06;;;;;;;1.08;0.70;;;;;;;21.84;45.03;99321.25;4102807;28;20223;-52
2022/07/18 06:59:08;;;;;;;1.40;0.90;;;;;;;21.98;44.68;99332.47;4102638;28;20202;-52
2022/07/18 07:01:10;;;;;;;0.80;0.77;;;;;;;22.21;43.89;99332.34;4091508;28;20215;-52
2022/07/18 07:03:12;;;;;;;1.13;0.70;;;;;;;22.35;44.18;99329.56;4121420;28;20210;-52
2022/07/18 07:05:17;;;;;;;1.85;1.17;;;;;;;22.40;43.96;99329.47;4094961;28;20680;-52
2022/07/18 07:07:22;;;;;;;14.10;1.73;;;;;;;22.59;43.48;99330.28;4111510;28;20202;-53
2022/07/18 07:09:24;;;;;;;1.25;0.90;;;;;;;22.69;43.03;99322.53;4102151;28;20277;-52
2022/07/18 07:11:28;;;;;;;4.47;1.13;;;;;;;22.90;42.40;99318.19;4107816;28;20265;-52
2022/07/18 07:13:30;;;;;;;3.80;1.00;;;;;;;22.98;42.69;99323.03;4103392;28;20713;-52
2022/07/18 07:15:32;;;;;;;6.15;1.20;;;;;;;23.10;42.54;99322.53;4108420;28;20214;-52
2022/07/18 07:17:35;;;;;;;1.95;0.63;;;;;;;23.36;41.88;99321.69;4086392;28;20211;-52
2022/07/18 07:19:36;;;;;;;4.88;0.70;;;;;;;23.46;41.12;99315.03;4105292;28;20241;-53
2022/07/18 07:21:38;;;;;;;4.25;0.88;;;;;;;23.57;41.61;99305.28;4099628;28;20211;-52
2022/07/18 07:23:40;;;;;;;3.13;0.70;;;;;;;23.67;40.90;99312.28;4119282;28;20665;-52
2022/07/18 07:25:42;;;;;;;1.25;0.70;;;;;;;23.78;41.28;99302.50;4108926;28;20316;-52
2022/07/18 07:27:44;;;;;;;2.13;0.65;;;;;;;23.80;41.24;99305.00;4102989;28;20210;-52
2022/07/18 07:29:46;;;;;;;5.43;0.85;;;;;;;23.98;41.25;99306.00;4103379;28;20242;-52
2022/07/18 07:31:47;;;;;;;1.77;0.88;;;;;;;24.21;40.68;99302.84;4110349;28;21233;-51
2022/07/18 07:33:49;;;;;;;1.52;0.90;;;;;;;24.19;38.54;99303.16;4119080;28;20217;-51
2022/07/18 07:35:51;;;;;;;5.40;0.93;;;;;;;24.36;39.56;99297.69;4102992;28;20203;-51
2022/07/18 07:37:55;;;;;;;2.83;0.80;;;;;;;24.50;40.10;99298.41;4110395;28;20217;-51
2022/07/18 07:39:57;;;;;;;1.38;0.80;;;;;;;24.72;40.05;99301.19;4102718;28;20663;-52
2022/07/18 07:41:59;;;;;;;1.45;0.80;;;;;;;24.88;39.93;99302.41;4095198;29;20667;-51
2022/07/18 07:44:05;;;;;;;4.22;0.95;;;;;;;24.83;38.61;99296.13;4120531;28;20353;-51
2022/07/18 07:46:07;;;;;;;2.72;1.17;;;;;;;25.04;39.01;99298.00;4105007;28;20210;-51
2022/07/18 07:48:09;;;;;;;1.38;1.00;;;;;;;25.15;39.62;99299.38;4101781;28;20230;-52
2022/07/18 07:50:12;;;;;;;2.38;0.88;;;;;;;25.34;38.84;99301.91;4105916;28;20288;-52
2022/07/18 07:52:14;;;;;;;1.30;0.73;;;;;;;25.63;39.34;99300.13;4116359;28;20953;-52
2022/07/18 07:54:16;;;;;;;8.45;0.68;;;;;;;25.71;39.01;99302.09;4121297;28;20563;-53
2022/07/18 07:56:19;;;;;;;5.45;0.80;;;;;;;25.75;37.80;99297.50;4101541;28;20269;-52
2022/07/18 07:58:21;;;;;;;1.38;0.75;;;;;;;25.59;36.17;99293.50;4102651;28;20245;-53
2022/07/18 08:00:27;;;;;;;2.83;0.85;;;;;;;25.53;36.34;99292.03;4102746;28;20227;-51
2022/07/18 08:02:29;;;;;;;4.78;0.80;;;;;;;25.79;37.58;99292.84;4102594;28;20266;-52
2022/07/18 08:04:34;;;;;;;1.98;1.00;;;;;;;26.14;37.43;99286.06;4103549;28;20206;-51
2022/07/18 08:06:39;;;;;;;2.75;0.80;;;;;;;26.27;36.67;99282.25;4087410;28;20214;-52
2022/07/18 08:08:41;;;;;;;2.72;0.80;;;;;;;26.27;34.14;99293.47;4102516;28;20278;-52
2022/07/18 08:10:43;;;;;;;4.28;0.77;;;;;;;26.44;36.06;99281.38;4100562;28;20234;-52
2022/07/18 08:12:45;;;;;;;5.18;0.73;;;;;;;26.73;35.92;99287.91;4111960;28;20209;-51
2022/07/18 08:14:47;;;;;;;2.63;0.90;;;;;;;26.98;35.90;99286.97;4102429;28;20214;-52
2022/07/18 08:16:48;;;;;;;5.45;0.95;;;;;;;26.90;34.57;99275.78;4109747;28;20206;-52
2022/07/18 08:18:50;;;;;;;2.83;0.70;;;;;;;27.18;35.18;99279.81;4093271;28;20781;-53
2022/07/18 08:20:52;;;;;;;2.40;0.70;;;;;;;27.36;35.62;99276.53;4109473;28;20251;-53
2022/07/18 08:23:02;;;;;;;1.92;1.15;;;;;;;27.33;33.28;99282.03;4103296;28;20211;-52
2022/07/18 08:25:04;;;;;;;18.58;1.00;;;;;;;27.66;35.49;99286.56;4110972;28;20206;-52
2022/07/18 08:27:06;;;;;;;3.22;0.77;;;;;;;27.50;33.58;99288.34;4104891;28;20230;-52
2022/07/18 08:29:08;;;;;;;5.00;0.95;;;;;;;27.77;34.68;99282.22;4103298;28;20234;-52
2022/07/18 08:31:10;;;;;;;6.97;0.88;;;;;;;27.85;34.15;99281.31;4110211;28;20670;-52
2022/07/18 08:33:12;;;;;;;3.55;1.00;;;;;;;28.14;34.00;99281.22;4119936;28;20264;-52
2022/07/18 08:35:15;;;;;;;1.58;0.88;;;;;;;28.00;31.42;99282.66;4089935;28;20207;-51
2022/07/18 08:37:19;;;;;;;1.92;1.30;;;;;;;27.89;31.38;99290.72;4116241;28;20608;-52
2022/07/18 08:39:21;;;;;;;4.40;0.90;;;;;;;28.12;32.73;99283.53;4101130;28;20246;-52
2022/07/18 08:41:24;;;;;;;5.20;0.88;;;;;;;28.27;32.24;99285.72;4110992;28;20206;-51
2022/07/18 08:43:26;;;;;;;1.75;0.90;;;;;;;28.39;31.94;99282.94;4101849;28;20218;-51
2022/07/18 08:45:31;;;;;;;3.03;0.88;;;;;;;28.64;30.43;99279.00;4109964;28;20499;-52
2022/07/18 08:47:33;;;;;;;6.03;1.00;;;;;;;28.62;31.81;99281.38;4100382;28;20698;-52
2022/07/18 08:49:35;;;;;;;2.55;0.80;;;;;;;28.95;31.82;99279.31;4120125;28;20241;-52
2022/07/18 08:51:37;;;;;;;3.60;0.80;;;;;;;29.15;31.78;99274.72;4124008;28;20210;-51
2022/07/18 08:53:39;;;;;;;1.67;1.23;;;;;;;29.11;29.36;99268.97;4106995;28;20234;-52
2022/07/18 08:55:42;;;;;;;6.88;1.00;;;;;;;29.15;29.45;99261.47;4122319;28;20209;-52
2022/07/18 08:57:44;;;;;;;2.65;0.73;;;;;;;29.20;29.13;99275.31;4113003;28;20210;-52
2022/07/18 08:59:46;;;;;;;4.20;0.80;;;;;;;29.29;29.36;99273.19;4114230;28;20230;-52
2022/07/18 09:01:48;;;;;;;4.20;0.80;;;;;;;29.36;29.87;99267.78;4105178;28;20930;-52
2022/07/18 09:04:14;;;;;;;3.20;0.77;;;;;;;29.03;27.64;99264.28;4091151;28;20222;-53
2022/07/18 09:06:13;;;;;;;2.83;0.77;;;;;;;29.34;28.87;99270.13;4107100;28;20624;-52
2022/07/18 09:08:19;;;;;;;7.53;1.27;;;;;;;29.22;29.05;99263.66;4091164;28;20242;-51
2022/07/18 09:10:21;;;;;;;2.63;0.70;;;;;;;29.61;28.35;99263.75;4104224;28;20765;-53
2022/07/18 09:12:25;;;;;;;1.38;0.95;;;;;;;29.52;27.60;99270.72;4104801;28;20207;-51
2022/07/18 09:14:40;;;;;;;2.60;0.77;;;;;;;29.65;26.69;99264.69;4109128;28;20214;-51
2022/07/18 09:16:42;;;;;;;1.55;0.68;;;;;;;29.93;28.72;99259.88;4104005;28;20887;-52
2022/07/18 09:18:46;;;;;;;4.13;1.23;;;;;;;29.96;27.68;99253.53;4112739;28;20214;-53
2022/07/18 09:21:04;;;;;;;5.25;0.88;;;;;;;29.98;28.20;99256.78;4109623;28;20230;-51
2022/07/18 09:23:12;;;;;;;2.38;0.70;;;;;;;30.13;27.90;99258.91;4105455;28;20215;-52
2022/07/18 09:25:17;;;;;;;2.97;0.93;;;;;;;29.36;27.04;99259.31;4096885;28;20262;-50
2022/07/18 09:27:30;;;;;;;7.63;1.50;;;;;;;29.90;26.75;99254.94;4112543;28;20207;-52
2022/07/18 09:29:32;;;;;;;1.02;0.82;;;;;;;30.25;26.62;99256.00;4104855;28;20652;-52
2022/07/18 09:31:39;;;;;;;4.28;1.10;;;;;;;30.05;26.50;99245.72;4106881;28;20211;-50
2022/07/18 09:33:52;;;;;;;2.10;0.75;;;;;;;29.88;26.13;99248.84;4091484;28;20235;-52
2022/07/18 09:35:54;;;;;;;2.33;0.80;;;;;;;30.11;26.68;99255.59;4106052;28;20206;-52
2022/07/18 09:38:07;;;;;;;0.82;0.75;;;;;;;30.40;26.82;99241.09;4101819;28;20210;-52
2022/07/18 09:40:18;;;;;;;2.80;0.60;;;;;;;30.74;26.35;99239.59;4104575;28;20241;-51